CEST,Max TemperatureF,Mean TemperatureF,Min TemperatureF,Max Dew PointF,MeanDew PointF,Min DewpointF,Max Humidity, Mean Humidity, Min Humidity, Max Sea Level PressureIn, Mean Sea Level PressureIn, Min Sea Level PressureIn, Max VisibilityMiles, Mean VisibilityMiles, Min VisibilityMiles, Max Wind SpeedMPH, Mean Wind SpeedMPH, Max Gust SpeedMPH,PrecipitationIn, CloudCover, Events, WindDirDegrees
2013-4-1,55,52,48,48,45,43,94,81,67,29.62,29.48,29.36,6,6,3,20,10,31,0.00,6,Rain,259
2013-4-2,55,50,46,48,45,41,93,81,67,29.86,29.72,29.62,6,6,2,25,12,43,0.00,6,Rain,268
2013-4-3,62,50,39,46,42,37,100,75,48,29.83,29.68,29.53,6,6,5,12,4,,0.00,5,,104
2013-4-4,53,48,42,50,44,36,94,86,71,29.74,29.55,29.50,6,5,1,15,6,,0.00,7,Rain,309
2013-4-5,50,44,39,39,37,34,93,79,54,29.89,29.78,29.71,6,5,2,28,8,,0.00,6,Rain,253
2013-4-6,50,44,37,39,36,36,93,80,62,30.18,30.02,29.89,6,6,4,14,9,,0.00,7,Rain,288
2013-4-7,53,46,39,41,37,36,87,73,51,30.18,30.03,29.83,6,5,2,7,3,,0.00,6,,29
2013-4-8,55,50,44,45,43,39,100,80,67,29.83,29.80,29.74,6,6,4,16,6,,0.00,6,Rain,277
2013-4-9,59,52,46,45,43,37,87,74,48,29.95,29.80,29.65,6,6,6,22,9,,0.00,7,Rain,260
2013-4-10,73,60,48,48,44,41,82,59,40,29.98,29.90,29.83,6,6,6,15,5,,0.00,5,,203
2013-4-11,73,62,51,52,48,45,94,71,38,29.92,29.79,29.68,6,6,3,22,5,31,0.00,6,Rain,315
2013-4-12,62,53,44,50,46,39,100,78,42,30.09,29.95,29.89,6,6,3,16,5,,0.00,5,Rain,330
2013-4-13,73,60,46,48,46,43,93,63,35,30.12,30.08,30.04,6,6,6,9,3,,0.00,6,,118
2013-4-14,80,65,50,55,47,37,73,52,32,30.09,30.06,30.01,6,6,6,12,5,,0.00,,,98
2013-4-15,75,64,53,57,53,48,88,72,50,30.21,30.14,30.04,6,6,6,17,6,,0.00,4,Rain-Thunderstorm,353
2013-4-16,73,62,50,59,53,46,100,76,57,30.24,30.19,30.15,6,6,5,9,4,,0.00,5,,323
2013-4-17,86,70,53,59,55,52,100,70,31,30.21,30.11,30.04,6,6,3,17,3,,0.00,6,,181
2013-4-18,62,56,50,54,51,46,100,86,68,30.33,30.28,30.21,6,6,2,12,6,,0.00,6,Rain,289
2013-4-19,57,52,44,48,43,39,94,79,54,30.42,30.36,30.30,6,6,5,15,4,,0.00,6,Rain-Thunderstorm,254
2013-4-20,59,48,37,45,38,32,100,70,36,30.42,30.32,30.21,6,6,6,12,4,,0.00,4,,306
2013-4-21,60,48,37,45,39,32,100,70,36,30.27,30.18,30.12,6,6,6,10,4,,0.00,2,,275
2013-4-22,59,50,41,43,40,36,87,66,44,30.21,30.17,30.15,6,6,6,9,5,,0.00,5,,262
2013-4-23,64,53,42,46,43,39,100,70,45,30.27,30.23,30.18,6,6,6,8,3,,0.00,4,,108
2013-4-24,75,60,44,50,44,39,93,60,27,30.24,30.20,30.15,6,6,6,12,4,,0.00,,,93
2013-4-25,75,60,46,50,46,41,87,56,34,30.18,30.12,30.06,6,6,6,7,3,,0.00,1,,74
2013-4-26,62,56,48,54,51,46,100,87,63,30.06,30.03,29.98,6,5,2,16,8,,0.00,7,Rain,283
2013-4-27,51,46,41,46,41,34,93,83,50,30.01,29.89,29.83,6,6,2,18,7,,0.00,6,Rain,256
2013-4-28,51,45,39,41,39,36,100,81,54,30.01,29.95,29.89,6,6,0,9,3,,0.00,7,Fog-Rain,139
2013-4-29,55,48,42,45,41,36,100,78,51,30.04,30.01,29.98,6,6,5,8,2,,0.00,7,Rain,106
2013-4-30,57,52,46,50,46,43,94,83,63,29.98,29.89,29.83,6,6,1,10,3,,0.00,7,Rain,239